Harrison, Michigan
Current Conditions -  °F | °C
As of 2:53 PM on Monday 24 Nov 2014 (Local Time) from KHTL Reporting Station
Light Rain Light Rain  
Wind Chill:   Ceiling: 900
Heat Index:   Visibility: 5mi
Dew Point:   Wind: 7mph
Humidity: 96%   Direction: 220°SW
Pressure: 29.04"   Gusts: NA
Location:  44.02°N, 84.8°W
Report Text: KHTL 241953Z AUTO 22006KT 5SM -RA BR OVC009 08/07 A2904 RMK AO2 CIG 008V012 SLP839 P0005 T00780072
Loading
Personal Weather Stations






























Interactive Weather Map New forecast layout! Learn more

10-Day Weather Forecast

Advertisements
Track Severe Weather on mobile